»·PEaware :: SWA367 KATL-KSTL

SWA367 :: KATL-KSTL

FLIGHT INFORMATION

Flight Status: Arrived
Operator:
Southwest Airlines
More flights by this operator :: More flights under this callsign
Pilot: Jamyson D. (13674)
Aircraft: BOEING 737-700
(B737)
More flights by this aircraft type
Origin: KATL Hartsfield-Jackson Atlanta
United States
Destination: KSTL Lambert-St Louis Intl
United States
More flights between these airports :: More routes between these airports
Route: PENCL2 JAACE BNA BOOSH1
File this flight plan on PilotEdge
Remarks: PBN / A1B1C1D1S1S2 DOF / 170601 REG / N714SB EET / KZME0025 KZKC0101 OPR / SWA RMK / TCAS SIMBRIEF
Altitude:
(Current/Filed)
36,000ft
Speed:
(Current/Filed)
441kts
Departed: 31-May-17 05:40 PM
Arrived: 31-May-17 06:52 PM
Distance/Time
Traveled:
419nm/1:11
Distance/Time
To Go:
Arrived

Flight Plot

Page will automatically refresh every two minutes.


Map Options




Map Legend


Flown Route
Filed Route
Departure Airport
Arrival Airport
Navaid (VOR, NDB)
Fix

Horizontal Profiles

Position Reports

Time Latitude Longitude Heading Altitude Ground
Speed
31-May-17 17:41 34.029977 -84.639949 341 16647ft 385kts
31-May-17 17:42 34.135494 -84.674304 341 19256ft 400kts
31-May-17 17:43 34.245271 -84.709998 340 21573ft 414kts
31-May-17 17:44 34.355622 -84.754738 335 23578ft 424kts
31-May-17 17:45 34.452535 -84.796434 335 25100ft 433kts
31-May-17 17:46 34.567237 -84.845422 334 26731ft 442kts
31-May-17 17:47 34.684677 -84.895341 334 28131ft 450kts
31-May-17 17:48 34.803644 -84.946125 333 29393ft 456kts
31-May-17 17:49 34.922137 -84.996788 333 31241ft 447kts
31-May-17 17:50 35.038420 -85.046829 332 32982ft 439kts
31-May-17 17:51 35.137256 -85.121488 306 34471ft 406kts
31-May-17 17:52 35.208528 -85.225600 303 35924ft 394kts
31-May-17 17:53 35.277075 -85.330526 302 36139ft 393kts
31-May-17 17:54 35.344820 -85.435127 302 36147ft 391kts
31-May-17 17:55 35.401146 -85.521865 301 36154ft 390kts
31-May-17 17:56 35.468075 -85.626188 301 36153ft 389kts
31-May-17 17:57 35.534790 -85.730601 301 36156ft 389kts
31-May-17 17:58 35.601629 -85.835322 301 36160ft 388kts
31-May-17 17:59 35.668081 -85.939887 301 36159ft 388kts
31-May-17 18:00 35.734263 -86.044385 301 36158ft 387kts
31-May-17 18:01 35.801375 -86.150050 301 36152ft 399kts
31-May-17 18:02 35.869740 -86.258123 301 36145ft 398kts
31-May-17 18:03 35.937658 -86.366001 301 36143ft 398kts
31-May-17 18:04 36.005716 -86.474109 301 36140ft 399kts
31-May-17 18:05 36.061023 -86.562715 301 36140ft 399kts
31-May-17 18:06 36.128598 -86.672267 298 36140ft 397kts
31-May-17 18:07 36.178952 -86.792342 291 36132ft 393kts
31-May-17 18:08 36.226813 -86.913949 291 36120ft 393kts
31-May-17 18:09 36.274675 -87.036550 291 36122ft 395kts
31-May-17 18:10 36.322696 -87.158934 291 36122ft 395kts
31-May-17 18:11 36.370550 -87.281575 291 36121ft 395kts
31-May-17 18:12 36.418122 -87.404267 291 36120ft 395kts
31-May-17 18:13 36.465745 -87.527691 291 36118ft 395kts
31-May-17 18:14 36.513057 -87.650826 291 36110ft 395kts
31-May-17 18:15 36.553389 -87.756183 291 36111ft 395kts
31-May-17 18:16 36.600467 -87.879630 291 36110ft 395kts
31-May-17 18:17 36.647561 -88.003602 291 36111ft 395kts
31-May-17 18:18 36.694349 -88.127260 291 36108ft 396kts
31-May-17 18:19 36.733298 -88.230561 291 36108ft 395kts
31-May-17 18:20 36.787718 -88.375479 291 36108ft 396kts
31-May-17 18:21 36.834355 -88.500226 291 36104ft 396kts
31-May-17 18:22 36.880687 -88.624649 291 36097ft 396kts
31-May-17 18:23 36.926943 -88.749368 291 36092ft 396kts
31-May-17 18:24 36.965549 -88.853840 291 36092ft 396kts
31-May-17 18:25 37.004631 -88.959960 291 36093ft 396kts
31-May-17 18:26 37.058167 -89.105934 290 36097ft 396kts
31-May-17 18:27 37.096356 -89.210370 291 36099ft 396kts
31-May-17 18:28 37.142324 -89.336103 290 36097ft 394kts
31-May-17 18:29 37.194515 -89.480654 290 35161ft 389kts
31-May-17 18:30 37.246620 -89.572755 320 32543ft 412kts
31-May-17 18:31 37.351573 -89.639269 329 29304ft 423kts
31-May-17 18:32 37.458365 -89.698234 330 26701ft 413kts
31-May-17 18:33 37.560865 -89.754519 330 24961ft 385kts
31-May-17 18:34 37.658178 -89.807898 331 22807ft 378kts
31-May-17 18:35 37.739003 -89.852529 331 21021ft 371kts
31-May-17 18:36 37.832712 -89.904433 332 18945ft 362kts
31-May-17 18:37 37.889641 -89.935595 333 17674ft 358kts
31-May-17 18:38 37.889641 -89.935595 333 17674ft 358kts
31-May-17 18:39 37.948040 -89.966937 333 16281ft 355kts
31-May-17 18:40 38.036803 -90.016938 332 14185ft 336kts
31-May-17 18:41 38.118504 -90.062362 337 12236ft 309kts
31-May-17 18:42 38.203253 -90.077741 350 10706ft 300kts
31-May-17 18:43 38.281824 -90.085966 350 9915ft 276kts
31-May-17 18:44 38.358270 -90.094436 352 8995ft 278kts
31-May-17 18:45 38.423106 -90.084818 5 8099ft 278kts
31-May-17 18:46 38.498585 -90.069789 3 7034ft 270kts
31-May-17 18:47 38.569786 -90.056604 3 6017ft 241kts
31-May-17 18:48 38.617712 -90.092640 298 5003ft 209kts
31-May-17 18:49 38.647022 -90.154077 301 3913ft 195kts
31-May-17 18:50 38.675073 -90.210904 303 2916ft 182kts
31-May-17 18:51 38.701156 -90.263697 303 1986ft 173kts
31-May-17 18:52 38.724379 -90.310609 303 1126ft 144kts
31-May-17 18:53 38.745084 -90.352719 302 612ft 108kts
31-May-17 18:54 38.746499 -90.363004 210 611ft 22kts
31-May-17 18:55 38.745157 -90.363109 184 611ft 0kts
31-May-17 18:56 38.742872 -90.359609 121 611ft 19kts
31-May-17 18:57 38.740750 -90.357002 191 611ft 7kts
31-May-17 18:58 38.737824 -90.357875 159 611ft 0kts

Navigation Log

Ident Type
Flight plan parsing failed, navigation log unavailable